Time;durP1;ratioP1;P1;durP2;ratioP2;P2;SDS_P1;SDS_P2;PMS_P1;PMS_P2;Temp;Humidity;BMP_temperature;BMP_pressure;BME280_temperature;BME280_humidity;BME280_pressure;Samples;Min_cycle;Max_cycle;Signal;HPM_P1;HPM_P2
2021/09/28 00:00:44;;;;;;;29.45;16.42;;;;;;;;;;5012077;28;20049;-67
2021/09/28 00:03:11;;;;;;;24.92;16.17;;;;;;;;;;5012024;28;20419;-66
2021/09/28 00:05:40;;;;;;;27.83;16.17;;;;;;;;;;5012139;28;20046;-66
2021/09/28 00:08:08;;;;;;;28.02;16.63;;;;;;;;;;5011954;28;20049;-67
2021/09/28 00:10:36;;;;;;;28.27;16.50;;;;;;;;;;5011954;28;20053;-67
2021/09/28 00:13:03;;;;;;;26.73;15.77;;;;;;;;;;5011955;28;20056;-67
2021/09/28 00:15:30;;;;;;;26.52;16.10;;;;;;;;;;5011943;28;20144;-67
2021/09/28 00:17:57;;;;;;;29.05;16.70;;;;;;;;;;5012090;28;20080;-67
2021/09/28 00:20:25;;;;;;;30.08;16.08;;;;;;;;;;5011838;28;20073;-67
2021/09/28 00:22:54;;;;;;;28.30;16.77;;;;;;;;;;5011727;28;20060;-66
2021/09/28 00:25:22;;;;;;;29.35;16.98;;;;;;;;;;5012299;28;20058;-66
2021/09/28 00:27:49;;;;;;;25.30;16.08;;;;;;;;;;5012306;28;20046;-66
2021/09/28 00:30:16;;;;;;;27.92;16.17;;;;;;;;;;5011734;28;20056;-67
2021/09/28 00:32:43;;;;;;;30.60;17.00;;;;;;;;;;5011719;28;20429;-67
2021/09/28 00:35:10;;;;;;;26.58;15.45;;;;;;;;;;5011403;28;20077;-67
2021/09/28 00:37:38;;;;;;;25.70;15.80;;;;;;;;;;5011703;28;20137;-67
2021/09/28 00:40:07;;;;;;;27.85;16.05;;;;;;;;;;5011720;28;20042;-67
2021/09/28 00:42:36;;;;;;;26.50;15.90;;;;;;;;;;5011724;28;20054;-66
2021/09/28 00:45:03;;;;;;;29.50;16.40;;;;;;;;;;5011718;28;20470;-67
2021/09/28 00:47:31;;;;;;;29.85;17.55;;;;;;;;;;5011594;28;20057;-67
2021/09/28 00:49:58;;;;;;;29.33;16.25;;;;;;;;;;5011411;28;20133;-67
2021/09/28 00:52:25;;;;;;;28.27;15.95;;;;;;;;;;5011799;28;20050;-66
2021/09/28 00:54:52;;;;;;;30.30;17.23;;;;;;;;;;5016297;28;20056;-66
2021/09/28 00:57:21;;;;;;;31.67;18.20;;;;;;;;;;5035457;28;20050;-67
2021/09/28 00:59:48;;;;;;;30.85;18.20;;;;;;;;;;5035346;28;20048;-67
2021/09/28 01:02:16;;;;;;;34.65;19.08;;;;;;;;;;5035118;28;20410;-67
2021/09/28 01:04:43;;;;;;;29.85;18.70;;;;;;;;;;5035291;28;20413;-67
2021/09/28 01:07:10;;;;;;;31.73;18.63;;;;;;;;;;5035121;28;20046;-66
2021/09/28 01:09:38;;;;;;;33.30;18.60;;;;;;;;;;5035123;28;20430;-66
2021/09/28 01:12:07;;;;;;;33.50;17.35;;;;;;;;;;5034783;28;20107;-67
2021/09/28 01:14:37;;;;;;;31.77;18.88;;;;;;;;;;5034817;28;20052;-67
2021/09/28 01:17:09;;;;;;;31.63;18.45;;;;;;;;;;5034706;28;20503;-66
2021/09/28 01:19:36;;;;;;;31.55;17.95;;;;;;;;;;5035359;28;20509;-67
2021/09/28 01:22:05;;;;;;;35.30;18.52;;;;;;;;;;5034857;28;20456;-66
2021/09/28 01:24:33;;;;;;;30.73;18.05;;;;;;;;;;5034525;28;20049;-66
2021/09/28 01:27:00;;;;;;;32.67;18.65;;;;;;;;;;5034511;28;20045;-66
2021/09/28 01:29:27;;;;;;;31.33;17.38;;;;;;;;;;5034372;28;20056;-66
2021/09/28 01:31:54;;;;;;;34.72;19.20;;;;;;;;;;5034359;28;20064;-66
2021/09/28 01:34:22;;;;;;;30.63;17.98;;;;;;;;;;5034328;28;20049;-67
2021/09/28 01:36:50;;;;;;;29.02;17.27;;;;;;;;;;5034749;28;20437;-66
2021/09/28 01:39:20;;;;;;;27.92;16.08;;;;;;;;;;5034945;28;20049;-66
2021/09/28 01:41:48;;;;;;;30.88;18.00;;;;;;;;;;5034486;28;20049;-66
2021/09/28 01:44:17;;;;;;;30.55;17.17;;;;;;;;;;5034163;28;20447;-66
2021/09/28 01:46:47;;;;;;;36.30;19.13;;;;;;;;;;5034921;28;20052;-66
2021/09/28 01:49:16;;;;;;;33.15;19.40;;;;;;;;;;5034386;28;20053;-66
2021/09/28 01:51:44;;;;;;;33.20;19.23;;;;;;;;;;5034117;28;20056;-66
2021/09/28 01:54:11;;;;;;;34.67;18.85;;;;;;;;;;5034123;28;20132;-66
2021/09/28 01:56:41;;;;;;;33.72;19.35;;;;;;;;;;5018532;28;20050;-66
2021/09/28 01:59:08;;;;;;;31.60;17.58;;;;;;;;;;5014668;28;20427;-66
2021/09/28 02:01:35;;;;;;;26.90;16.00;;;;;;;;;;5014444;28;20050;-66
2021/09/28 02:04:03;;;;;;;25.67;15.52;;;;;;;;;;5014244;28;20161;-67
2021/09/28 02:06:35;;;;;;;24.55;14.65;;;;;;;;;;5014006;28;20046;-66
2021/09/28 02:09:04;;;;;;;24.88;14.73;;;;;;;;;;5014391;28;20050;-67
2021/09/28 02:11:31;;;;;;;24.50;13.90;;;;;;;;;;5014302;28;20143;-67
2021/09/28 02:14:00;;;;;;;24.73;14.80;;;;;;;;;;5013881;28;20052;-67
2021/09/28 02:16:27;;;;;;;23.23;13.30;;;;;;;;;;5014257;28;20072;-67
2021/09/28 02:18:54;;;;;;;20.50;12.93;;;;;;;;;;5014165;28;20148;-67
2021/09/28 02:21:21;;;;;;;24.20;13.40;;;;;;;;;;5014145;28;20048;-67
2021/09/28 02:23:48;;;;;;;23.30;13.23;;;;;;;;;;5014267;28;20505;-67
2021/09/28 02:26:15;;;;;;;21.17;12.63;;;;;;;;;;5013835;28;20140;-67
2021/09/28 02:28:43;;;;;;;20.00;12.38;;;;;;;;;;5013906;28;20053;-67
2021/09/28 02:31:11;;;;;;;21.02;12.20;;;;;;;;;;5013732;28;20045;-67
2021/09/28 02:33:38;;;;;;;17.80;11.50;;;;;;;;;;5013582;28;20054;-67
2021/09/28 02:36:05;;;;;;;21.70;12.63;;;;;;;;;;5013695;28;20050;-67
2021/09/28 02:38:32;;;;;;;20.98;12.32;;;;;;;;;;5014061;28;20054;-67
2021/09/28 02:40:59;;;;;;;22.50;12.48;;;;;;;;;;5013981;28;20049;-67
2021/09/28 02:43:26;;;;;;;21.52;13.15;;;;;;;;;;5013569;28;20525;-67
2021/09/28 02:45:53;;;;;;;24.92;13.57;;;;;;;;;;5013703;28;20494;-67
2021/09/28 02:48:22;;;;;;;21.38;12.00;;;;;;;;;;5013575;28;20483;-67
2021/09/28 02:50:49;;;;;;;22.02;12.30;;;;;;;;;;5013432;28;20056;-67
2021/09/28 02:53:16;;;;;;;19.95;11.95;;;;;;;;;;5013532;28;20056;-67
2021/09/28 02:55:43;;;;;;;20.77;11.77;;;;;;;;;;5021096;28;20052;-67
2021/09/28 02:58:10;;;;;;;19.15;10.88;;;;;;;;;;5033031;28;20052;-67
2021/09/28 03:00:37;;;;;;;21.17;13.43;;;;;;;;;;5033215;28;20045;-67
2021/09/28 03:03:04;;;;;;;20.10;12.38;;;;;;;;;;5032907;28;20055;-67
2021/09/28 03:05:32;;;;;;;23.67;14.23;;;;;;;;;;5033352;28;20128;-67
2021/09/28 03:08:00;;;;;;;25.10;13.23;;;;;;;;;;5033033;28;20049;-67
2021/09/28 03:10:27;;;;;;;25.20;13.18;;;;;;;;;;5032792;28;20056;-67
2021/09/28 03:12:54;;;;;;;21.83;12.73;;;;;;;;;;5032730;28;20490;-67
2021/09/28 03:15:22;;;;;;;22.23;12.55;;;;;;;;;;5032697;28;20514;-67
2021/09/28 03:17:48;;;;;;;20.95;12.75;;;;;;;;;;5032426;28;20463;-65
2021/09/28 03:20:15;;;;;;;19.77;11.10;;;;;;;;;;5032529;28;20052;-66
2021/09/28 03:22:44;;;;;;;22.27;12.90;;;;;;;;;;5032510;28;20041;-66
2021/09/28 03:25:11;;;;;;;24.20;12.95;;;;;;;;;;5032479;28;20504;-66
2021/09/28 03:27:38;;;;;;;21.83;12.63;;;;;;;;;;5032646;28;20534;-66
2021/09/28 03:30:06;;;;;;;20.55;12.50;;;;;;;;;;5032418;28;20063;-66
2021/09/28 03:32:36;;;;;;;22.35;13.43;;;;;;;;;;5032029;28;20132;-66
2021/09/28 03:35:05;;;;;;;30.98;17.98;;;;;;;;;;5032434;28;20134;-66
2021/09/28 03:37:32;;;;;;;24.60;15.00;;;;;;;;;;5032731;28;20045;-66
2021/09/28 03:40:00;;;;;;;21.00;11.82;;;;;;;;;;5032279;28;20053;-66
2021/09/28 03:42:27;;;;;;;24.40;13.75;;;;;;;;;;5032285;28;20059;-66
2021/09/28 03:44:54;;;;;;;25.80;15.85;;;;;;;;;;5032506;28;20084;-66
2021/09/28 03:47:21;;;;;;;35.35;20.65;;;;;;;;;;5032238;28;20060;-66
2021/09/28 03:49:48;;;;;;;24.95;13.50;;;;;;;;;;5032150;28;20046;-66
2021/09/28 03:52:15;;;;;;;24.90;13.57;;;;;;;;;;5031875;28;20056;-66
2021/09/28 03:54:42;;;;;;;24.17;13.55;;;;;;;;;;5031975;28;20052;-66
2021/09/28 03:57:11;;;;;;;25.45;14.05;;;;;;;;;;5012356;28;20125;-66
2021/09/28 03:59:38;;;;;;;26.10;14.55;;;;;;;;;;5012420;28;20056;-66
2021/09/28 04:02:06;;;;;;;25.88;15.15;;;;;;;;;;5012140;28;20049;-66
2021/09/28 04:04:33;;;;;;;30.77;16.58;;;;;;;;;;5012461;28;20042;-66
2021/09/28 04:07:00;;;;;;;26.83;15.48;;;;;;;;;;5013312;28;20057;-66
2021/09/28 04:09:27;;;;;;;29.55;15.07;;;;;;;;;;5012298;28;20108;-66
2021/09/28 04:11:54;;;;;;;31.90;16.85;;;;;;;;;;5012369;28;20050;-66
2021/09/28 04:14:23;;;;;;;30.88;16.92;;;;;;;;;;5011728;28;20582;-67
2021/09/28 04:16:50;;;;;;;32.67;16.58;;;;;;;;;;5012896;28;20419;-66
2021/09/28 04:19:17;;;;;;;29.15;15.68;;;;;;;;;;5012097;28;20052;-66
2021/09/28 04:21:44;;;;;;;28.48;16.05;;;;;;;;;;5012033;28;20050;-66
2021/09/28 04:24:12;;;;;;;32.67;18.05;;;;;;;;;;5012335;28;20050;-66
2021/09/28 04:26:40;;;;;;;32.00;17.92;;;;;;;;;;5012117;28;20060;-66
2021/09/28 04:29:07;;;;;;;27.75;16.45;;;;;;;;;;5011434;28;20132;-67
2021/09/28 04:34:01;;;;;;;28.77;14.48;;;;;;;;;;5073439;22;20064;-84
2021/09/28 04:36:28;;;;;;;28.55;15.68;;;;;;;;;;5057931;28;20056;-85
2021/09/28 04:38:55;;;;;;;28.75;15.98;;;;;;;;;;5058482;28;20044;-85
2021/09/28 04:41:22;;;;;;;31.00;17.45;;;;;;;;;;5057763;28;20443;-85
2021/09/28 04:43:49;;;;;;;30.98;17.23;;;;;;;;;;5057852;28;20044;-85
2021/09/28 04:46:16;;;;;;;27.48;15.07;;;;;;;;;;5062980;28;20059;-84
2021/09/28 04:48:44;;;;;;;33.40;17.52;;;;;;;;;;5073978;28;20106;-84
2021/09/28 04:51:12;;;;;;;32.38;16.85;;;;;;;;;;5074376;28;20029;-86
2021/09/28 04:53:39;;;;;;;26.65;15.88;;;;;;;;;;5072682;28;20052;-84
2021/09/28 04:56:06;;;;;;;31.55;16.77;;;;;;;;;;5058783;28;20049;-84
2021/09/28 04:58:33;;;;;;;25.25;14.73;;;;;;;;;;5058246;28;20044;-85
2021/09/28 05:01:00;;;;;;;27.83;15.40;;;;;;;;;;5059622;28;20056;-84
2021/09/28 05:03:27;;;;;;;28.85;17.05;;;;;;;;;;5058751;28;20415;-82
2021/09/28 05:05:53;;;;;;;29.30;16.52;;;;;;;;;;5066658;28;20112;-83
2021/09/28 05:08:22;;;;;;;32.08;16.50;;;;;;;;;;5076701;28;20045;-85
2021/09/28 05:10:49;;;;;;;27.23;15.73;;;;;;;;;;5073478;28;20044;-83
2021/09/28 05:13:16;;;;;;;27.42;15.85;;;;;;;;;;5059635;28;20052;-85
2021/09/28 05:15:43;;;;;;;31.60;18.00;;;;;;;;;;5067950;28;20060;-85
2021/09/28 05:18:10;;;;;;;30.55;17.08;;;;;;;;;;5075042;28;20056;-84
2021/09/28 05:20:37;;;;;;;27.48;14.88;;;;;;;;;;5074697;28;20071;-84
2021/09/28 05:23:04;;;;;;;31.95;17.40;;;;;;;;;;5074258;28;20052;-83
2021/09/28 05:25:33;;;;;;;28.42;17.02;;;;;;;;;;5075244;28;20045;-84
2021/09/28 05:27:59;;;;;;;30.42;17.05;;;;;;;;;;5075285;28;20110;-83
2021/09/28 05:30:26;;;;;;;30.88;17.30;;;;;;;;;;5074905;28;20099;-83
2021/09/28 05:32:54;;;;;;;32.38;18.02;;;;;;;;;;5076122;28;20040;-84
2021/09/28 05:35:20;;;;;;;30.13;17.67;;;;;;;;;;5076441;28;20686;-85
2021/09/28 05:37:47;;;;;;;29.52;16.52;;;;;;;;;;5076319;28;20049;-85
2021/09/28 05:40:14;;;;;;;29.05;17.42;;;;;;;;;;5067871;28;20045;-83
2021/09/28 05:42:43;;;;;;;27.83;15.85;;;;;;;;;;5063046;28;20049;-83
2021/09/28 05:45:10;;;;;;;30.73;16.73;;;;;;;;;;5063228;28;20057;-83
2021/09/28 05:47:37;;;;;;;27.45;15.55;;;;;;;;;;5062850;28;20144;-82
2021/09/28 05:50:04;;;;;;;31.35;18.65;;;;;;;;;;5063152;28;20060;-83
2021/09/28 05:52:31;;;;;;;26.50;15.88;;;;;;;;;;5062449;28;20064;-83
2021/09/28 05:54:58;;;;;;;26.98;14.55;;;;;;;;;;5061946;28;20182;-84
2021/09/28 05:57:25;;;;;;;24.88;14.77;;;;;;;;;;5061601;28;20420;-83
2021/09/28 05:59:53;;;;;;;25.73;14.57;;;;;;;;;;5061430;28;20056;-82
2021/09/28 06:02:20;;;;;;;28.25;16.55;;;;;;;;;;5061642;28;20113;-83
2021/09/28 06:04:48;;;;;;;27.85;14.55;;;;;;;;;;5061799;28;20053;-85
2021/09/28 06:07:15;;;;;;;25.08;14.18;;;;;;;;;;5062942;28;20408;-85
2021/09/28 06:09:42;;;;;;;22.63;12.85;;;;;;;;;;5062884;28;20096;-83
2021/09/28 06:12:12;;;;;;;22.27;13.43;;;;;;;;;;5061717;28;20057;-83
2021/09/28 06:14:40;;;;;;;21.73;13.47;;;;;;;;;;5062004;28;20053;-84
2021/09/28 06:17:08;;;;;;;23.58;13.73;;;;;;;;;;5062575;28;20057;-83
2021/09/28 06:19:35;;;;;;;21.63;12.27;;;;;;;;;;5061484;28;20049;-84
2021/09/28 06:22:03;;;;;;;21.38;12.00;;;;;;;;;;5061188;28;20049;-83
2021/09/28 06:24:32;;;;;;;19.60;11.20;;;;;;;;;;5061671;28;20052;-83
2021/09/28 06:26:59;;;;;;;16.85;9.60;;;;;;;;;;5061886;28;20056;-84
2021/09/28 06:29:26;;;;;;;16.42;9.35;;;;;;;;;;5060075;28;20049;-84
2021/09/28 06:31:53;;;;;;;17.80;8.48;;;;;;;;;;5060403;28;20076;-84
2021/09/28 06:34:21;;;;;;;13.23;7.95;;;;;;;;;;5060786;28;20049;-84
2021/09/28 06:36:48;;;;;;;12.10;6.45;;;;;;;;;;5062078;28;20040;-84
2021/09/28 06:39:15;;;;;;;9.63;5.07;;;;;;;;;;5061492;28;20071;-84
2021/09/28 06:41:42;;;;;;;7.68;4.45;;;;;;;;;;5060802;28;20499;-86
2021/09/28 06:44:09;;;;;;;7.00;3.60;;;;;;;;;;5060999;28;20045;-85
2021/09/28 06:46:36;;;;;;;7.25;2.85;;;;;;;;;;5061470;28;20057;-84
2021/09/28 06:49:03;;;;;;;5.13;2.33;;;;;;;;;;5061589;28;20048;-83
2021/09/28 06:51:32;;;;;;;4.88;2.40;;;;;;;;;;5061629;28;20041;-84
2021/09/28 06:53:58;;;;;;;5.05;2.13;;;;;;;;;;5061126;28;20048;-85
2021/09/28 06:56:25;;;;;;;7.32;2.60;;;;;;;;;;5064525;28;20307;-84
2021/09/28 06:58:52;;;;;;;5.70;2.30;;;;;;;;;;5062810;28;20071;-84
2021/09/28 07:01:22;;;;;;;5.15;2.35;;;;;;;;;;5061972;28;20428;-84
2021/09/28 07:03:49;;;;;;;6.00;2.33;;;;;;;;;;5062576;28;20049;-84
2021/09/28 07:06:16;;;;;;;7.38;2.60;;;;;;;;;;5075460;28;20029;-84
2021/09/28 07:08:44;;;;;;;4.32;1.88;;;;;;;;;;5072485;28;20053;-85
2021/09/28 07:11:11;;;;;;;4.60;2.17;;;;;;;;;;5062786;28;20057;-84
2021/09/28 07:13:38;;;;;;;5.82;2.10;;;;;;;;;;5061376;28;20036;-85
2021/09/28 07:16:06;;;;;;;3.15;1.45;;;;;;;;;;5061692;28;20076;-85
2021/09/28 07:18:33;;;;;;;2.95;1.48;;;;;;;;;;5060581;28;20055;-84
2021/09/28 07:21:00;;;;;;;3.88;1.80;;;;;;;;;;5060587;28;20470;-84
2021/09/28 07:23:27;;;;;;;4.07;1.92;;;;;;;;;;5060092;28;20053;-84
2021/09/28 07:25:55;;;;;;;6.97;2.20;;;;;;;;;;5060286;28;20064;-83
2021/09/28 07:28:22;;;;;;;4.30;1.75;;;;;;;;;;5060893;28;20083;-83
2021/09/28 07:30:50;;;;;;;5.53;1.77;;;;;;;;;;5070289;28;20049;-86
2021/09/28 07:33:17;;;;;;;4.43;1.70;;;;;;;;;;5068061;28;20463;-84
2021/09/28 07:35:45;;;;;;;5.05;1.60;;;;;;;;;;5057910;28;20049;-84
2021/09/28 07:38:12;;;;;;;4.45;2.17;;;;;;;;;;5061098;28;20159;-86
2021/09/28 07:40:39;;;;;;;5.07;1.20;;;;;;;;;;5059053;28;20072;-85
2021/09/28 07:43:08;;;;;;;3.83;1.48;;;;;;;;;;5058486;28;20053;-84
2021/09/28 07:45:35;;;;;;;3.35;1.30;;;;;;;;;;5059404;28;20096;-84
2021/09/28 07:48:02;;;;;;;3.13;1.52;;;;;;;;;;5063815;28;20055;-85
2021/09/28 07:50:29;;;;;;;5.50;1.95;;;;;;;;;;5077466;28;20046;-86
2021/09/28 07:52:56;;;;;;;7.38;1.75;;;;;;;;;;5072100;28;20041;-84
2021/09/28 07:55:24;;;;;;;4.07;1.75;;;;;;;;;;5058320;28;20123;-83
2021/09/28 07:57:51;;;;;;;7.57;3.90;;;;;;;;;;5058514;28;20056;-84
2021/09/28 08:00:20;;;;;;;3.97;2.00;;;;;;;;;;5058890;28;20053;-84
2021/09/28 08:02:47;;;;;;;4.93;2.00;;;;;;;;;;5058491;28;20064;-84
2021/09/28 08:05:14;;;;;;;3.40;1.83;;;;;;;;;;5064385;28;20053;-85
2021/09/28 08:07:41;;;;;;;3.95;2.10;;;;;;;;;;5070427;28;20071;-85
2021/09/28 08:10:09;;;;;;;4.53;1.98;;;;;;;;;;5070321;28;20045;-83
2021/09/28 08:12:36;;;;;;;4.43;2.15;;;;;;;;;;5070494;28;20052;-84
2021/09/28 08:15:04;;;;;;;4.47;2.35;;;;;;;;;;5069786;28;20085;-85
2021/09/28 08:17:33;;;;;;;5.95;2.42;;;;;;;;;;5066140;28;20049;-85
2021/09/28 08:20:00;;;;;;;6.88;3.20;;;;;;;;;;5059771;28;20052;-84
2021/09/28 08:22:28;;;;;;;6.22;2.97;;;;;;;;;;5059842;28;20049;-85
2021/09/28 08:25:05;;;;;;;8.45;2.80;;;;;;;;;;5061118;28;20049;-86
2021/09/28 08:30:16;;;;;;;5.35;2.50;;;;;;;;;;5038121;28;20454;-84
2021/09/28 08:32:45;;;;;;;7.00;3.08;;;;;;;;;;5058216;28;20051;-85
2021/09/28 08:35:11;;;;;;;5.97;2.53;;;;;;;;;;5058301;28;20052;-84
2021/09/28 08:37:38;;;;;;;5.40;2.45;;;;;;;;;;5061682;28;20049;-85
2021/09/28 08:40:06;;;;;;;5.93;2.90;;;;;;;;;;5058214;28;20053;-84
2021/09/28 08:42:33;;;;;;;5.60;3.08;;;;;;;;;;5058621;28;20423;-85
2021/09/28 08:45:00;;;;;;;6.85;2.65;;;;;;;;;;5059109;28;20045;-84
2021/09/28 08:47:41;;;;;;;4.97;3.17;;;;;;;;;;5059229;28;20049;-84
2021/09/28 08:50:14;;;;;;;4.63;2.70;;;;;;;;;;5061688;28;20049;-86
2021/09/28 08:52:42;;;;;;;4.78;2.75;;;;;;;;;;5061193;28;20052;-85
2021/09/28 08:55:10;;;;;;;6.25;2.97;;;;;;;;;;5058682;28;20404;-85
2021/09/28 08:57:38;;;;;;;5.72;3.05;;;;;;;;;;5059086;28;20492;-84
2021/09/28 09:00:21;;;;;;;7.65;3.17;;;;;;;;;;5058688;28;20045;-85
2021/09/28 09:02:49;;;;;;;5.97;3.10;;;;;;;;;;5059418;28;20052;-85
2021/09/28 09:05:17;;;;;;;6.13;3.58;;;;;;;;;;5058176;28;20049;-85
2021/09/28 09:07:57;;;;;;;5.90;3.75;;;;;;;;;;5058732;28;20044;-85
2021/09/28 09:10:27;;;;;;;7.30;3.70;;;;;;;;;;5075577;28;20041;-85
2021/09/28 09:12:54;;;;;;;9.38;6.20;;;;;;;;;;5075588;28;20049;-85
2021/09/28 09:15:23;;;;;;;7.38;3.42;;;;;;;;;;5079084;28;20053;-86
2021/09/28 09:17:52;;;;;;;7.55;4.15;;;;;;;;;;5077562;28;20087;-84
2021/09/28 09:20:27;;;;;;;6.38;3.50;;;;;;;;;;5063033;28;20048;-85
2021/09/28 09:22:54;;;;;;;9.32;5.63;;;;;;;;;;5061963;28;20476;-84
2021/09/28 09:25:23;;;;;;;7.53;4.80;;;;;;;;;;5062152;28;20049;-85
2021/09/28 09:27:50;;;;;;;7.97;4.00;;;;;;;;;;5061775;28;20442;-84
2021/09/28 09:30:20;;;;;;;4.78;2.55;;;;;;;;;;5061743;28;20049;-85
2021/09/28 09:32:48;;;;;;;6.35;3.10;;;;;;;;;;5062629;28;20049;-86
2021/09/28 09:35:30;;;;;;;5.72;3.42;;;;;;;;;;5062219;28;20056;-85
2021/09/28 09:38:06;;;;;;;5.97;3.45;;;;;;;;;;5062421;28;20424;-85
2021/09/28 09:40:36;;;;;;;6.15;3.42;;;;;;;;;;5063654;28;20060;-85
2021/09/28 09:43:03;;;;;;;6.40;3.80;;;;;;;;;;5062240;28;20480;-85
2021/09/28 09:45:30;;;;;;;7.13;3.85;;;;;;;;;;5064598;28;20052;-84
2021/09/28 09:47:57;;;;;;;7.28;3.35;;;;;;;;;;5064236;28;20048;-85
2021/09/28 09:50:26;;;;;;;5.40;2.65;;;;;;;;;;5069757;28;20045;-83
2021/09/28 09:53:09;;;;;;;6.30;2.95;;;;;;;;;;5067269;28;20049;-83
2021/09/28 09:55:40;;;;;;;6.75;3.55;;;;;;;;;;5070767;28;20044;-84
2021/09/28 09:58:08;;;;;;;4.20;2.58;;;;;;;;;;5059856;28;20103;-83
2021/09/28 10:00:37;;;;;;;5.20;3.15;;;;;;;;;;5060847;28;20119;-84
2021/09/28 10:03:06;;;;;;;6.57;2.97;;;;;;;;;;5059166;28;20075;-84
2021/09/28 10:05:34;;;;;;;6.53;3.30;;;;;;;;;;5061670;28;20114;-82
2021/09/28 10:08:06;;;;;;;6.85;3.90;;;;;;;;;;5060778;28;20144;-83
2021/09/28 10:10:35;;;;;;;7.35;4.18;;;;;;;;;;5060558;28;20135;-84
2021/09/28 10:13:03;;;;;;;8.35;4.20;;;;;;;;;;5061126;28;20424;-83
2021/09/28 10:15:30;;;;;;;9.38;4.43;;;;;;;;;;5062636;28;20052;-84
2021/09/28 10:17:57;;;;;;;9.80;5.32;;;;;;;;;;5076364;28;20059;-84
2021/09/28 10:20:29;;;;;;;12.18;7.45;;;;;;;;;;5077346;28;20049;-83
2021/09/28 10:22:58;;;;;;;11.00;5.15;;;;;;;;;;5076325;28;20104;-84
2021/09/28 10:25:31;;;;;;;11.13;5.00;;;;;;;;;;5075985;28;20064;-84
2021/09/28 10:28:33;;;;;;;11.85;5.85;;;;;;;;;;5070774;28;20049;-85
2021/09/28 10:31:01;;;;;;;12.27;5.38;;;;;;;;;;5079394;28;20033;-86
2021/09/28 10:33:32;;;;;;;9.02;5.30;;;;;;;;;;5075235;28;20045;-85
2021/09/28 10:36:01;;;;;;;10.65;5.13;;;;;;;;;;5060555;28;20148;-84
2021/09/28 10:38:54;;;;;;;9.93;5.30;;;;;;;;;;5062324;28;20049;-86
2021/09/28 10:41:38;;;;;;;11.00;5.88;;;;;;;;;;5067399;28;20056;-84
2021/09/28 10:44:47;;;;;;;10.93;4.95;;;;;;;;;;5068737;28;20059;-85
2021/09/28 10:47:53;;;;;;;9.50;5.55;;;;;;;;;;5065373;28;20091;-86
2021/09/28 10:50:30;;;;;;;9.43;5.28;;;;;;;;;;5061447;28;20396;-86
2021/09/28 10:52:58;;;;;;;13.60;7.90;;;;;;;;;;5060567;28;20052;-86
2021/09/28 10:55:38;;;;;;;11.52;6.38;;;;;;;;;;5061032;28;20052;-86
2021/09/28 10:58:14;;;;;;;11.60;6.15;;;;;;;;;;5059616;28;20114;-86
2021/09/28 11:01:11;;;;;;;14.85;8.25;;;;;;;;;;5059787;28;20196;-86
2021/09/28 11:03:51;;;;;;;11.55;6.78;;;;;;;;;;5059573;28;20148;-84
2021/09/28 11:06:49;;;;;;;13.90;8.65;;;;;;;;;;5060006;28;20052;-85
2021/09/28 11:09:18;;;;;;;10.30;5.22;;;;;;;;;;5059881;28;20053;-85
2021/09/28 11:11:50;;;;;;;8.30;4.65;;;;;;;;;;5059304;28;20057;-85
2021/09/28 11:14:17;;;;;;;9.52;6.63;;;;;;;;;;5059313;28;20041;-84
2021/09/28 11:16:50;;;;;;;9.73;5.28;;;;;;;;;;5059361;28;20049;-85
2021/09/28 11:19:18;;;;;;;9.07;5.05;;;;;;;;;;5058863;28;20073;-86
2021/09/28 11:21:48;;;;;;;8.57;5.13;;;;;;;;;;5057530;28;20079;-84
2021/09/28 11:24:21;;;;;;;8.52;4.95;;;;;;;;;;5058047;28;20052;-84
2021/09/28 11:26:49;;;;;;;8.10;4.43;;;;;;;;;;5057805;28;20064;-85
2021/09/28 11:29:22;;;;;;;8.30;4.95;;;;;;;;;;5058838;28;20056;-86
2021/09/28 11:31:49;;;;;;;6.93;3.97;;;;;;;;;;5058323;28;20053;-85
2021/09/28 11:34:26;;;;;;;8.70;4.85;;;;;;;;;;5057900;28;20045;-85
2021/09/28 11:37:01;;;;;;;8.52;4.63;;;;;;;;;;5057371;28;20457;-84
2021/09/28 11:39:31;;;;;;;6.95;4.53;;;;;;;;;;5057570;28;20049;-84
2021/09/28 11:41:58;;;;;;;8.00;5.20;;;;;;;;;;5057816;28;20059;-85
2021/09/28 11:44:33;;;;;;;7.80;4.68;;;;;;;;;;5064768;28;20056;-85
2021/09/28 11:47:00;;;;;;;7.78;4.43;;;;;;;;;;5063580;28;20064;-86
2021/09/28 11:49:27;;;;;;;8.23;4.15;;;;;;;;;;5059422;28;20064;-86
2021/09/28 11:51:55;;;;;;;8.75;4.40;;;;;;;;;;5059478;28;20052;-86
2021/09/28 11:54:23;;;;;;;10.07;4.28;;;;;;;;;;5058822;28;20052;-86
2021/09/28 11:56:52;;;;;;;11.88;5.75;;;;;;;;;;5057928;28;20045;-85
2021/09/28 11:59:20;;;;;;;8.82;4.72;;;;;;;;;;5057943;28;20052;-85
2021/09/28 12:01:48;;;;;;;10.23;6.00;;;;;;;;;;5058040;28;20392;-85
2021/09/28 12:04:20;;;;;;;10.63;4.93;;;;;;;;;;5057595;28;20052;-85
2021/09/28 12:07:07;;;;;;;14.07;8.27;;;;;;;;;;5057315;28;20055;-86
2021/09/28 12:09:57;;;;;;;11.43;6.30;;;;;;;;;;5057157;28;20118;-86
2021/09/28 12:12:25;;;;;;;7.45;4.25;;;;;;;;;;5057179;28;20135;-86
2021/09/28 12:14:54;;;;;;;8.98;4.88;;;;;;;;;;5059278;28;20132;-85
2021/09/28 12:17:23;;;;;;;9.43;5.50;;;;;;;;;;5068625;28;20049;-84
2021/09/28 12:19:51;;;;;;;7.53;4.15;;;;;;;;;;5059998;28;20079;-85
2021/09/28 12:22:29;;;;;;;8.90;4.38;;;;;;;;;;5055646;28;20060;-86
2021/09/28 12:24:58;;;;;;;10.15;5.03;;;;;;;;;;5055608;28;20073;-85
2021/09/28 12:27:27;;;;;;;8.20;4.65;;;;;;;;;;5055664;28;20048;-85
2021/09/28 12:29:58;;;;;;;9.82;5.15;;;;;;;;;;5055349;28;20071;-84
2021/09/28 12:32:27;;;;;;;14.02;7.97;;;;;;;;;;5056310;28;20052;-84
2021/09/28 12:34:56;;;;;;;9.27;5.68;;;;;;;;;;5067559;28;20061;-84
2021/09/28 12:37:24;;;;;;;11.73;6.75;;;;;;;;;;5063082;28;20045;-86
2021/09/28 12:40:07;;;;;;;11.73;7.05;;;;;;;;;;5059188;28;20045;-85
2021/09/28 12:42:35;;;;;;;9.52;4.93;;;;;;;;;;5062884;28;20058;-84
2021/09/28 12:45:04;;;;;;;9.10;4.75;;;;;;;;;;5060961;28;20049;-84
2021/09/28 12:47:34;;;;;;;9.40;5.13;;;;;;;;;;5061517;28;20052;-85
2021/09/28 12:50:25;;;;;;;13.52;6.63;;;;;;;;;;5060386;28;20079;-86
2021/09/28 12:52:53;;;;;;;13.25;6.22;;;;;;;;;;5062385;28;20080;-87
2021/09/28 12:55:22;;;;;;;12.15;6.47;;;;;;;;;;5078210;28;20033;-84
2021/09/28 12:57:48;;;;;;;12.63;5.60;;;;;;;;;;5080747;28;20059;-82
2021/09/28 13:00:16;;;;;;;10.35;4.95;;;;;;;;;;5081315;28;20033;-82
2021/09/28 13:02:42;;;;;;;11.57;5.53;;;;;;;;;;5081234;28;20041;-82
2021/09/28 13:05:12;;;;;;;12.35;6.78;;;;;;;;;;5081024;28;20032;-81
2021/09/28 13:07:40;;;;;;;13.15;6.55;;;;;;;;;;5081410;28;20033;-81
2021/09/28 13:10:08;;;;;;;10.75;6.20;;;;;;;;;;5078683;28;20108;-82
2021/09/28 13:12:36;;;;;;;12.65;6.55;;;;;;;;;;5075331;28;20056;-84
2021/09/28 13:15:04;;;;;;;10.57;5.80;;;;;;;;;;5075384;28;20041;-84
2021/09/28 13:17:32;;;;;;;13.05;6.43;;;;;;;;;;5061575;28;20045;-85
2021/09/28 13:20:00;;;;;;;14.27;6.32;;;;;;;;;;5058686;28;20052;-85
2021/09/28 13:22:27;;;;;;;10.77;6.05;;;;;;;;;;5060973;28;20045;-84
2021/09/28 13:24:53;;;;;;;9.90;5.30;;;;;;;;;;5059358;28;20491;-86
2021/09/28 13:27:20;;;;;;;12.10;6.97;;;;;;;;;;5058052;28;20048;-85
2021/09/28 13:29:48;;;;;;;11.80;6.18;;;;;;;;;;5057988;28;20060;-84
2021/09/28 13:32:16;;;;;;;12.32;6.55;;;;;;;;;;5058672;28;20065;-85
2021/09/28 13:34:43;;;;;;;12.82;6.10;;;;;;;;;;5060120;28;20107;-84
2021/09/28 13:37:10;;;;;;;15.23;8.23;;;;;;;;;;5060853;28;20045;-84
2021/09/28 13:39:36;;;;;;;11.93;6.53;;;;;;;;;;5058417;28;20049;-85
2021/09/28 13:42:04;;;;;;;11.57;6.78;;;;;;;;;;5058244;28;20234;-85
2021/09/28 13:44:31;;;;;;;12.65;7.15;;;;;;;;;;5058370;28;20049;-85
2021/09/28 13:46:59;;;;;;;12.10;6.55;;;;;;;;;;5058884;28;20045;-84
2021/09/28 13:49:27;;;;;;;11.60;6.45;;;;;;;;;;5058260;28;20223;-83
2021/09/28 13:51:53;;;;;;;10.20;6.18;;;;;;;;;;5058225;28;20057;-84
2021/09/28 13:54:20;;;;;;;11.73;5.72;;;;;;;;;;5058241;28;20049;-84
2021/09/28 13:56:47;;;;;;;11.38;5.82;;;;;;;;;;5058208;28;20045;-84
2021/09/28 13:59:14;;;;;;;12.23;6.70;;;;;;;;;;5057334;28;20048;-84
2021/09/28 14:01:43;;;;;;;13.13;6.60;;;;;;;;;;5057588;28;20056;-85
2021/09/28 14:04:12;;;;;;;10.37;6.10;;;;;;;;;;5058770;28;20045;-82
2021/09/28 14:06:38;;;;;;;13.48;6.10;;;;;;;;;;5058442;28;20056;-83
2021/09/28 14:09:05;;;;;;;11.70;5.78;;;;;;;;;;5057890;28;20439;-84
2021/09/28 14:11:32;;;;;;;11.98;5.75;;;;;;;;;;5057599;28;20106;-85
2021/09/28 14:13:59;;;;;;;12.70;6.47;;;;;;;;;;5057131;28;20514;-84
2021/09/28 14:16:26;;;;;;;10.25;5.93;;;;;;;;;;5057443;28;20052;-84
2021/09/28 14:18:53;;;;;;;9.40;6.00;;;;;;;;;;5064084;28;20048;-83
2021/09/28 14:21:22;;;;;;;11.73;7.47;;;;;;;;;;5069933;28;20049;-84
2021/09/28 14:23:49;;;;;;;11.05;5.80;;;;;;;;;;5066425;28;20049;-82
2021/09/28 14:26:16;;;;;;;12.13;6.38;;;;;;;;;;5061580;28;20048;-85
2021/09/28 14:28:43;;;;;;;13.15;7.00;;;;;;;;;;5058902;28;20152;-84
2021/09/28 14:31:11;;;;;;;8.75;5.82;;;;;;;;;;5057697;28;20053;-86
2021/09/28 14:33:38;;;;;;;8.55;5.18;;;;;;;;;;5058469;28;20419;-85
2021/09/28 14:36:06;;;;;;;9.57;5.28;;;;;;;;;;5058605;28;20049;-83
2021/09/28 14:38:35;;;;;;;11.02;5.28;;;;;;;;;;5065402;28;20045;-86
2021/09/28 14:41:03;;;;;;;11.45;5.45;;;;;;;;;;5073033;28;20045;-84
2021/09/28 14:43:30;;;;;;;9.65;4.95;;;;;;;;;;5056868;28;20049;-84